createdAt,value
2022-12-31T00:01:05.384Z,1.10
2022-12-31T00:05:09.461Z,1.00
2022-12-31T00:09:12.568Z,1.97
2022-12-31T00:13:17.268Z,1.10
2022-12-31T00:17:20.231Z,1.10
2022-12-31T00:21:23.971Z,1.00
2022-12-31T00:25:27.149Z,0.80
2022-12-31T00:29:31.648Z,0.90
2022-12-31T00:33:34.406Z,0.80
2022-12-31T00:37:37.476Z,0.90
2022-12-31T00:41:40.733Z,1.27
2022-12-31T00:45:45.044Z,1.00
2022-12-31T00:49:48.588Z,1.20
2022-12-31T00:53:51.471Z,1.07
2022-12-31T00:57:54.200Z,1.10
2022-12-31T01:01:58.402Z,1.10
2022-12-31T01:06:01.205Z,1.20
2022-12-31T01:10:04.250Z,1.00
2022-12-31T01:14:09.354Z,1.20
2022-12-31T01:18:13.863Z,1.10
2022-12-31T01:22:16.885Z,1.20
2022-12-31T01:26:20.293Z,1.00
2022-12-31T01:30:23.140Z,0.83
2022-12-31T01:34:27.454Z,1.10
2022-12-31T01:38:30.156Z,1.00
2022-12-31T01:42:32.842Z,0.93
2022-12-31T01:46:38.709Z,1.20
2022-12-31T01:50:44.353Z,1.10
2022-12-31T01:54:51.667Z,0.90
2022-12-31T01:58:56.320Z,0.80
2022-12-31T02:02:59.131Z,0.80
2022-12-31T02:07:06.936Z,0.70
2022-12-31T02:11:23.087Z,0.70
2022-12-31T02:15:41.512Z,0.80
2022-12-31T02:20:18.886Z,0.47
2022-12-31T02:24:58.212Z,0.80
2022-12-31T02:29:40.706Z,1.00
2022-12-31T02:33:48.127Z,0.67
2022-12-31T02:37:54.031Z,0.70
2022-12-31T02:41:56.702Z,0.60
2022-12-31T02:46:06.976Z,0.67
2022-12-31T02:50:23.033Z,0.70
2022-12-31T02:54:31.859Z,0.70
2022-12-31T02:58:56.811Z,0.60
2022-12-31T03:03:00.240Z,0.70
2022-12-31T03:07:07.168Z,0.80
2022-12-31T03:11:30.340Z,0.60
2022-12-31T03:15:34.951Z,0.70
2022-12-31T03:19:55.259Z,0.60
2022-12-31T03:24:16.880Z,0.80
2022-12-31T03:28:21.918Z,0.63
2022-12-31T03:32:24.639Z,0.60
2022-12-31T03:36:27.877Z,0.70
2022-12-31T03:40:34.372Z,0.60
2022-12-31T03:44:37.133Z,0.60
2022-12-31T03:48:39.977Z,0.47
2022-12-31T03:52:43.005Z,0.67
2022-12-31T03:56:49.436Z,0.43
2022-12-31T04:00:52.401Z,0.50
2022-12-31T04:04:55.058Z,0.70
2022-12-31T04:08:58.054Z,0.60
2022-12-31T04:13:04.597Z,0.63
2022-12-31T04:17:07.834Z,0.50
2022-12-31T04:21:10.591Z,0.70
2022-12-31T04:25:13.395Z,0.50
2022-12-31T04:29:17.604Z,0.50
2022-12-31T04:33:20.349Z,0.57
2022-12-31T04:37:23.354Z,0.67
2022-12-31T04:41:27.163Z,0.67
2022-12-31T04:45:31.372Z,0.50
2022-12-31T04:49:34.432Z,0.60
2022-12-31T04:53:37.496Z,0.70
2022-12-31T04:57:40.253Z,0.67
2022-12-31T05:01:44.467Z,0.50
2022-12-31T05:05:47.560Z,0.50
2022-12-31T05:09:50.262Z,0.50
2022-12-31T05:13:53.008Z,0.60
2022-12-31T05:17:57.100Z,0.77
2022-12-31T05:22:17.068Z,1.10
2022-12-31T05:26:20.139Z,0.90
2022-12-31T05:30:23.284Z,0.57
2022-12-31T05:34:27.627Z,0.50
2022-12-31T05:38:30.368Z,0.80
2022-12-31T05:42:33.144Z,0.70
2022-12-31T05:46:36.107Z,0.60
2022-12-31T05:50:40.665Z,0.50
2022-12-31T05:54:43.631Z,0.47
2022-12-31T05:58:46.327Z,0.53
2022-12-31T06:02:49.308Z,0.60
2022-12-31T06:06:53.399Z,0.70
2022-12-31T06:10:56.191Z,0.90
2022-12-31T06:14:58.940Z,0.80
2022-12-31T06:19:02.413Z,0.60
2022-12-31T06:23:06.724Z,0.63
2022-12-31T06:27:09.400Z,0.57
2022-12-31T06:31:13.545Z,0.50
2022-12-31T06:35:16.294Z,0.67
2022-12-31T06:39:20.307Z,0.70
2022-12-31T06:43:23.623Z,0.60
2022-12-31T06:47:26.467Z,0.50
2022-12-31T06:51:29.428Z,0.60
2022-12-31T06:55:34.317Z,0.73
2022-12-31T06:59:37.970Z,0.70
2022-12-31T07:03:44.819Z,0.73
2022-12-31T07:07:56.871Z,0.90
2022-12-31T07:12:07.261Z,1.20
2022-12-31T07:16:22.180Z,0.93
2022-12-31T07:20:25.679Z,1.50
2022-12-31T07:24:29.513Z,1.80
2022-12-31T07:28:42.977Z,0.80
2022-12-31T07:33:02.714Z,0.70
2022-12-31T07:37:09.553Z,0.50
2022-12-31T07:41:17.881Z,0.60
2022-12-31T07:45:26.583Z,0.60
2022-12-31T07:49:31.088Z,0.50
2022-12-31T07:53:34.309Z,0.70
2022-12-31T07:57:44.551Z,0.57
2022-12-31T08:01:51.948Z,0.70
2022-12-31T08:06:00.690Z,0.80
2022-12-31T08:10:17.329Z,0.80
2022-12-31T08:14:21.049Z,0.70
2022-12-31T08:18:25.557Z,0.70
2022-12-31T08:22:39.671Z,0.60
2022-12-31T08:26:53.038Z,0.60
2022-12-31T08:30:59.305Z,0.40
2022-12-31T08:35:09.248Z,0.67
2022-12-31T08:39:19.852Z,0.50
2022-12-31T08:43:38.743Z,0.60
2022-12-31T08:47:47.220Z,0.50
2022-12-31T08:51:52.003Z,0.53
2022-12-31T08:55:59.776Z,0.60
2022-12-31T09:00:07.710Z,0.60
2022-12-31T09:04:20.830Z,0.50
2022-12-31T09:08:31.099Z,0.53
2022-12-31T09:12:38.273Z,0.47
2022-12-31T09:16:46.588Z,0.60
2022-12-31T09:20:49.667Z,0.40
2022-12-31T09:24:54.335Z,0.67
2022-12-31T09:29:02.814Z,0.60
2022-12-31T09:33:09.584Z,0.60
2022-12-31T09:37:15.514Z,0.50
2022-12-31T09:41:31.298Z,0.60
2022-12-31T09:45:52.016Z,0.50
2022-12-31T09:50:16.097Z,0.60
2022-12-31T09:54:31.810Z,0.70
2022-12-31T09:58:42.598Z,0.80
2022-12-31T10:03:01.975Z,0.80
2022-12-31T10:07:12.168Z,1.30
2022-12-31T10:11:18.788Z,1.30
2022-12-31T10:16:03.194Z,1.30
2022-12-31T10:20:25.906Z,1.50
2022-12-31T10:24:45.169Z,1.17
2022-12-31T10:28:53.216Z,0.90
2022-12-31T10:33:08.472Z,0.80
2022-12-31T10:37:14.898Z,0.60
2022-12-31T10:41:48.706Z,0.60
2022-12-31T10:46:22.480Z,1.30
2022-12-31T10:50:59.475Z,1.20
2022-12-31T10:55:30.264Z,0.90
2022-12-31T10:59:59.442Z,1.30
2022-12-31T11:04:24.344Z,1.30
2022-12-31T11:08:46.544Z,1.20
2022-12-31T11:13:15.988Z,0.90
2022-12-31T11:17:29.742Z,1.13
2022-12-31T11:21:42.114Z,1.17
2022-12-31T11:25:55.967Z,1.20
2022-12-31T11:30:07.259Z,1.07
2022-12-31T11:34:25.673Z,1.03
2022-12-31T11:38:30.894Z,1.20
2022-12-31T11:42:42.708Z,1.00
2022-12-31T11:46:55.359Z,0.83
2022-12-31T11:51:11.173Z,1.40
2022-12-31T11:55:34.124Z,1.20
2022-12-31T11:59:39.891Z,1.00
2022-12-31T12:03:43.738Z,1.00
2022-12-31T12:07:46.941Z,1.00
2022-12-31T12:12:00.037Z,0.97
2022-12-31T12:16:08.086Z,0.90
2022-12-31T12:20:17.224Z,1.20
2022-12-31T12:24:22.286Z,1.00
2022-12-31T12:28:27.262Z,1.20
2022-12-31T12:32:31.439Z,1.10
2022-12-31T12:36:34.249Z,0.70
2022-12-31T12:40:37.149Z,0.70
2022-12-31T12:44:41.817Z,0.97
2022-12-31T12:48:47.776Z,0.87
2022-12-31T12:53:12.059Z,0.70
2022-12-31T12:57:20.928Z,0.80
2022-12-31T13:01:29.862Z,0.80
2022-12-31T13:05:42.549Z,0.73
2022-12-31T13:09:57.123Z,0.70
2022-12-31T13:14:03.253Z,0.80
2022-12-31T13:18:16.775Z,0.70
2022-12-31T13:22:24.778Z,0.70
2022-12-31T13:26:29.459Z,0.73
2022-12-31T13:30:34.778Z,0.70
2022-12-31T13:34:40.643Z,0.80
2022-12-31T13:38:47.963Z,0.80
2022-12-31T13:42:55.062Z,0.80
2022-12-31T13:47:02.499Z,1.27
2022-12-31T13:51:09.219Z,0.97
2022-12-31T13:55:18.401Z,0.50
2022-12-31T13:59:24.855Z,0.70
2022-12-31T14:03:41.246Z,0.50
2022-12-31T14:07:48.710Z,0.70
2022-12-31T14:12:21.247Z,0.93
2022-12-31T14:16:29.627Z,0.90
2022-12-31T14:20:39.447Z,1.30
2022-12-31T14:24:45.270Z,1.60
2022-12-31T14:28:52.534Z,1.27
2022-12-31T14:33:23.842Z,1.10
2022-12-31T14:37:32.338Z,1.83
2022-12-31T14:41:55.204Z,1.20
2022-12-31T14:46:05.508Z,1.70
2022-12-31T14:50:12.371Z,1.60
2022-12-31T14:54:29.065Z,1.20
2022-12-31T14:58:34.451Z,1.43
2022-12-31T15:02:38.627Z,1.30
2022-12-31T15:06:54.383Z,1.10
2022-12-31T15:11:26.337Z,1.40
2022-12-31T15:15:57.929Z,1.70
2022-12-31T15:20:19.025Z,1.60
2022-12-31T15:24:22.682Z,1.17
2022-12-31T15:28:32.808Z,1.40
2022-12-31T15:32:37.410Z,2.50
2022-12-31T15:36:53.572Z,5.07
2022-12-31T15:40:56.477Z,3.27
2022-12-31T15:45:01.977Z,2.30
2022-12-31T15:49:13.380Z,1.70
2022-12-31T15:53:27.836Z,2.20
2022-12-31T15:57:32.415Z,2.20
2022-12-31T16:01:36.890Z,1.50
2022-12-31T16:05:39.681Z,1.60
2022-12-31T16:09:45.095Z,1.80
2022-12-31T16:13:50.891Z,1.73
2022-12-31T16:18:04.419Z,1.90
2022-12-31T16:22:12.310Z,1.80
2022-12-31T16:26:16.414Z,1.80
2022-12-31T16:30:22.117Z,1.73
2022-12-31T16:34:26.830Z,2.10
2022-12-31T16:38:33.790Z,1.97
2022-12-31T16:42:44.116Z,2.60
2022-12-31T16:46:48.483Z,3.27
2022-12-31T16:50:53.942Z,3.00
2022-12-31T16:54:57.625Z,3.77
2022-12-31T16:59:05.098Z,5.23
2022-12-31T17:03:15.400Z,5.53
2022-12-31T17:07:37.259Z,4.33
2022-12-31T17:11:45.134Z,4.03
2022-12-31T17:15:51.474Z,3.30
2022-12-31T17:19:58.128Z,3.73
2022-12-31T17:24:03.412Z,3.53
2022-12-31T17:28:07.925Z,2.83
2022-12-31T17:32:29.652Z,3.53
2022-12-31T17:36:32.377Z,8.97
2022-12-31T17:40:54.410Z,3.50
2022-12-31T17:45:00.005Z,2.43
2022-12-31T17:49:04.619Z,2.40
2022-12-31T17:53:11.576Z,2.60
2022-12-31T17:57:24.224Z,3.30
2022-12-31T18:01:27.582Z,3.90
2022-12-31T18:05:31.844Z,4.17
2022-12-31T18:09:34.547Z,4.70
2022-12-31T18:13:37.519Z,4.23
2022-12-31T18:17:40.411Z,4.00
2022-12-31T18:21:44.985Z,3.67
2022-12-31T18:25:47.974Z,4.10
2022-12-31T18:29:50.644Z,3.37
2022-12-31T18:33:54.727Z,3.20
2022-12-31T18:37:58.777Z,3.80
2022-12-31T18:42:01.443Z,4.10
2022-12-31T18:46:04.607Z,5.13
2022-12-31T18:50:08.859Z,4.10
2022-12-31T18:54:12.976Z,6.00
2022-12-31T18:58:15.966Z,5.90
2022-12-31T19:02:21.032Z,5.23
2022-12-31T19:06:24.116Z,7.07
2022-12-31T19:10:29.172Z,4.53
2022-12-31T19:14:32.079Z,4.17
2022-12-31T19:18:35.005Z,3.87
2022-12-31T19:22:38.009Z,3.90
2022-12-31T19:26:43.636Z,4.03
2022-12-31T19:30:46.511Z,4.00
2022-12-31T19:34:49.437Z,4.03
2022-12-31T19:38:52.123Z,4.10
2022-12-31T19:42:57.342Z,3.50
2022-12-31T19:47:00.065Z,3.80
2022-12-31T19:51:02.765Z,9.70
2022-12-31T19:55:06.294Z,4.20
2022-12-31T19:59:11.576Z,4.37
2022-12-31T20:03:14.941Z,5.27
2022-12-31T20:07:22.115Z,4.50
2022-12-31T20:11:28.000Z,4.23
2022-12-31T20:15:32.438Z,4.83
2022-12-31T20:19:35.209Z,5.23
2022-12-31T20:23:37.850Z,5.07
2022-12-31T20:27:40.565Z,7.90
2022-12-31T20:31:45.004Z,9.30
2022-12-31T20:35:47.718Z,13.17
2022-12-31T20:39:50.381Z,22.30
2022-12-31T20:43:53.433Z,13.30
2022-12-31T20:47:57.524Z,8.00
2022-12-31T20:52:00.216Z,6.10
2022-12-31T20:56:05.318Z,6.73
2022-12-31T21:00:09.811Z,4.33
2022-12-31T21:04:14.007Z,6.07
2022-12-31T21:08:16.872Z,4.20
2022-12-31T21:12:36.989Z,4.67
2022-12-31T21:16:39.875Z,4.17
2022-12-31T21:20:47.249Z,4.60
2022-12-31T21:24:49.946Z,4.37
2022-12-31T21:28:53.656Z,3.83
2022-12-31T21:32:56.605Z,3.30
2022-12-31T21:37:00.874Z,3.00
2022-12-31T21:41:04.164Z,3.23
2022-12-31T21:45:08.724Z,2.73
2022-12-31T21:49:11.390Z,3.00
2022-12-31T21:53:21.767Z,2.40
2022-12-31T21:57:26.991Z,2.63
2022-12-31T22:01:47.087Z,3.10
2022-12-31T22:05:52.783Z,4.10
2022-12-31T22:09:57.744Z,3.67
2022-12-31T22:14:00.385Z,3.30
2022-12-31T22:18:03.070Z,3.07
2022-12-31T22:22:06.207Z,3.43
2022-12-31T22:26:13.467Z,2.70
2022-12-31T22:30:16.325Z,3.37
2022-12-31T22:34:19.182Z,3.00
2022-12-31T22:38:21.793Z,3.53
2022-12-31T22:42:25.846Z,4.07
2022-12-31T22:46:29.494Z,3.60
2022-12-31T22:50:32.204Z,3.87
2022-12-31T22:54:34.835Z,4.63
2022-12-31T22:58:39.088Z,4.93
2022-12-31T23:02:43.028Z,9.63
2022-12-31T23:06:45.977Z,41.77
2022-12-31T23:11:03.702Z,77.70
2022-12-31T23:15:28.039Z,60.20
2022-12-31T23:19:49.015Z,59.60
2022-12-31T23:23:54.455Z,63.83
2022-12-31T23:27:57.116Z,69.27
2022-12-31T23:32:01.581Z,89.03
2022-12-31T23:36:05.233Z,43.90
2022-12-31T23:40:09.311Z,47.27
2022-12-31T23:44:13.081Z,28.87
2022-12-31T23:48:17.384Z,19.50
2022-12-31T23:52:20.065Z,16.07
2022-12-31T23:56:23.997Z,12.87
